Aeroporto :
LOGIN :

Iscrizione | Disclaimer

   EN    FR    IT 

 










Sommario :    VFR   VFR Marginale   IFR   IFR Intensivo   IFR Molto Intensivo
Visibilità : 
Base nubi : 
>= 8 km
>= 3000ft
5 / 8 km
1000 / 3000 ft
1500m / 5 km
500 / 1000 ft
800 / 1500m
200 / 500 ft
< 800m
< 200 ft
Simboli :   Temporali  Nebbia  Neve Forte  Precipitazioni Forti  Vento > 20 kt
SIGMETs :   Varie  Temporali  Ghiacco  Turbolenza  Onda orograficha  Ceneri Vulcaniche






- Altitudine del aeroporto : 39 ft


ETNH - Hohn AB

ULTIMO METAR :
  • 051420Z 21008KT 6000 BKN006 03/02 Q0998 YLO

METARs OBSOLETI :
  • 051320Z 19007KT 6000 BKN006 03/01 Q0998 YLO
  • 051243Z 18009KT 5000 BR BKN006 03/01 Q0998 YLO
  • 051220Z 19006KT 5000 BR BKN007 03/01 Q0997 GRN

TAF TAF ETNH
Valido dal 05 a 06 ore il 05 a 18 ore UTC


050500Z 0506/0518 10008KT 8000 NSW FEW030 BKN100
TEMPO 0506/0512 12010KT 4000 -RASN SCT015 BKN080
TEMPO 0512/0518 18005KT 3000 -DZRA BKN005 BKN008 BY ETGL



MetMap, La meteo Aeronautica in un colpo d'occhio ! - Copyright ORBIFLY Dicembre 2007 - Disclaimer

ORBIFLY MET'MAP TEAM :

Programmazione e sviluppo : Alexandra Zaïnal
Concezione : Baudouin d'Aumeries
Aiuto per la programmazione : Marc-Olivier Méhu
Supporto tecnico e logistico : Manuel Goepfert
Aiuto per la traduzione : Arnaldo La Scala

Contatto : metmap@orbifly.com




FONTI E CREDITI :

   NOAA